Time;durP1;ratioP1;P1;durP2;ratioP2;P2;SDS_P1;SDS_P2;PMS_P1;PMS_P2;Temp;Humidity;BMP_temperature;BMP_pressure;BME280_temperature;BME280_humidity;BME280_pressure;Samples;Min_cycle;Max_cycle;Signal;HPM_P1;HPM_P2
2021/12/03 00:02:24;;;;;;;;;;;;;;;-142.21;100.00;66915.31;5011020;28;1639;-85
2021/12/03 00:04:50;;;;;;;;;;;;;;;-142.21;100.00;66915.31;4995940;28;845;-84
2021/12/03 00:07:15;;;;;;;;;;;;;;;-142.21;100.00;66915.31;4995753;28;1906;-84
2021/12/03 00:09:40;;;;;;;;;;;;;;;-142.21;100.00;66915.31;4995554;28;1579;-85
2021/12/03 00:12:06;;;;;;;;;;;;;;;-142.21;100.00;66915.31;4995814;28;979;-85
2021/12/03 00:14:34;;;;;;;;;;;;;;;-142.21;100.00;66915.31;4995662;28;1186;-84
2021/12/03 00:17:00;;;;;;;;;;;;;;;-142.21;100.00;66915.31;4995564;28;1623;-84
2021/12/03 00:19:25;;;;;;;;;;;;;;;-142.21;100.00;66915.31;4995538;28;1189;-85
2021/12/03 00:21:50;;;;;;;;;;;;;;;-142.21;100.00;66915.31;4995574;28;992;-84
2021/12/03 00:24:15;;;;;;;;;;;;;;;-142.21;100.00;66915.31;4995571;28;1082;-85
2021/12/03 00:26:42;;;;;;;;;;;;;;;-142.21;100.00;66915.31;4995308;28;1899;-85
2021/12/03 00:29:07;;;;;;;;;;;;;;;-142.21;100.00;66915.31;4995375;28;1192;-85
2021/12/03 00:31:32;;;;;;;;;;;;;;;-142.21;100.00;66915.31;4995555;28;1642;-85
2021/12/03 00:33:57;;;;;;;;;;;;;;;-142.21;100.00;66915.31;4995396;28;1035;-85
2021/12/03 00:36:23;;;;;;;;;;;;;;;-142.21;100.00;66915.31;5010273;28;1639;-86
2021/12/03 00:38:53;;;;;;;;;;;;;;;-142.21;100.00;66915.31;4995116;28;1192;-84
2021/12/03 00:41:20;;;;;;;;;;;;;;;-142.21;100.00;66915.31;4994947;28;1416;-85
2021/12/03 00:43:47;;;;;;;;;;;;;;;-142.21;100.00;66915.31;4995193;28;872;-84
2021/12/03 00:46:16;;;;;;;;;;;;;;;-142.21;100.00;66915.31;4995224;28;813;-85
2021/12/03 00:48:41;;;;;;;;;;;;;;;-142.21;100.00;66915.31;4994859;28;1965;-85
2021/12/03 00:51:07;;;;;;;;;;;;;;;-142.21;100.00;66915.31;4995055;28;1404;-85
2021/12/03 00:53:33;;;;;;;;;;;;;;;-142.21;100.00;66915.31;4994941;28;1259;-86
2021/12/03 00:55:58;;;;;;;;;;;;;;;-142.21;100.00;66915.31;4995027;28;947;-85
2021/12/03 00:58:23;;;;;;;;;;;;;;;-142.21;100.00;66915.31;5009613;28;1488;-85
2021/12/03 01:00:48;;;;;;;;;;;;;;;-142.21;100.00;66915.31;4994830;28;992;-85
2021/12/03 01:03:13;;;;;;;;;;;;;;;-142.21;100.00;66915.31;4994677;28;1444;-85
2021/12/03 01:05:39;;;;;;;;;;;;;;;-142.21;100.00;66915.31;5010584;28;1436;-83
2021/12/03 01:08:04;;;;;;;;;;;;;;;-142.21;100.00;66915.31;4994839;28;1906;-84
2021/12/03 01:10:29;;;;;;;;;;;;;;;-142.21;100.00;66915.31;4994734;28;1187;-85
2021/12/03 01:12:55;;;;;;;;;;;;;;;-142.21;100.00;66915.31;4993658;28;1388;-86
2021/12/03 01:15:23;;;;;;;;;;;;;;;-142.21;100.00;66915.31;4994679;28;968;-84
2021/12/03 01:17:48;;;;;;;;;;;;;;;-142.21;100.00;66915.31;5009831;28;1253;-85
2021/12/03 01:20:14;;;;;;;;;;;;;;;-142.21;100.00;66915.31;4994355;28;1448;-84
2021/12/03 01:22:39;;;;;;;;;;;;;;;-142.21;100.00;66915.31;4994430;28;953;-85
2021/12/03 01:25:05;;;;;;;;;;;;;;;-142.21;100.00;66915.31;4994679;28;976;-85
2021/12/03 01:27:31;;;;;;;;;;;;;;;-142.21;100.00;66915.31;4994339;28;1886;-84
2021/12/03 01:29:56;;;;;;;;;;;;;;;-142.21;100.00;66915.31;4994050;28;1495;-84
2021/12/03 01:32:21;;;;;;;;;;;;;;;-142.21;100.00;66915.31;5009358;28;854;-85
2021/12/03 01:34:46;;;;;;;;;;;;;;;-142.21;100.00;66915.31;4992900;28;1256;-85
2021/12/03 01:37:12;;;;;;;;;;;;;;;-142.21;100.00;66915.31;4994367;28;1050;-84
2021/12/03 01:39:37;;;;;;;;;;;;;;;-142.21;100.00;66915.31;4994228;28;1269;-84
2021/12/03 01:42:02;;;;;;;;;;;;;;;-142.21;100.00;66915.31;4994148;28;1043;-85
2021/12/03 01:44:27;;;;;;;;;;;;;;;-142.21;100.00;66915.31;4993039;28;1484;-85
2021/12/03 01:46:53;;;;;;;;;;;;;;;-142.21;100.00;66915.31;4993993;28;1906;-84
2021/12/03 01:49:18;;;;;;;;;;;;;;;-142.21;100.00;66915.31;4994052;28;1192;-83
2021/12/03 01:51:43;;;;;;;;;;;;;;;-142.21;100.00;66915.31;4994056;28;1580;-85
2021/12/03 01:54:09;;;;;;;;;;;;;;;-142.21;100.00;66915.31;4993516;28;797;-86
2021/12/03 01:56:36;;;;;;;;;;;;;;;-142.21;100.00;66915.31;4993996;28;853;-85
2021/12/03 01:59:01;;;;;;;;;;;;;;;-142.21;100.00;66915.31;4993525;28;1424;-84
2021/12/03 02:01:27;;;;;;;;;;;;;;;-142.21;100.00;66915.31;4994080;28;844;-84
2021/12/03 02:03:53;;;;;;;;;;;;;;;-142.21;100.00;66915.31;4994042;28;860;-85
2021/12/03 02:06:20;;;;;;;;;;;;;;;-142.21;100.00;66915.31;4992618;28;1173;-84
2021/12/03 02:08:45;;;;;;;;;;;;;;;-142.21;100.00;66915.31;4993839;28;1952;-86
2021/12/03 02:11:11;;;;;;;;;;;;;;;-142.21;100.00;66915.31;4992490;28;1310;-84
2021/12/03 02:13:37;;;;;;;;;;;;;;;-142.21;100.00;66915.31;4992623;28;1226;-85
2021/12/03 02:16:03;;;;;;;;;;;;;;;-142.21;100.00;66915.31;4993730;28;972;-85
2021/12/03 02:18:28;;;;;;;;;;;;;;;-142.21;100.00;66915.31;4992350;28;1198;-84
2021/12/03 02:20:55;;;;;;;;;;;;;;;-142.21;100.00;66915.31;4993750;28;995;-84
2021/12/03 02:23:20;;;;;;;;;;;;;;;-142.21;100.00;66915.31;4993648;28;1218;-84
2021/12/03 02:25:46;;;;;;;;;;;;;;;-142.21;100.00;66915.31;4993723;28;825;-84
2021/12/03 02:28:12;;;;;;;;;;;;;;;-142.21;100.00;66915.31;4993584;28;1894;-83
2021/12/03 02:30:37;;;;;;;;;;;;;;;-142.21;100.00;66915.31;4993755;28;1031;-84
2021/12/03 02:33:03;;;;;;;;;;;;;;;-142.21;100.00;66915.31;4993659;28;988;-86
2021/12/03 02:35:28;;;;;;;;;;;;;;;-142.21;100.00;66915.31;4993621;28;1512;-85
2021/12/03 02:37:53;;;;;;;;;;;;;;;-142.21;100.00;66915.31;4993665;28;944;-84
2021/12/03 02:40:20;;;;;;;;;;;;;;;-142.21;100.00;66915.31;5008946;28;1412;-84
2021/12/03 02:42:45;;;;;;;;;;;;;;;-142.21;100.00;66915.31;4993536;28;1148;-85
2021/12/03 02:45:12;;;;;;;;;;;;;;;-142.21;100.00;66915.31;4992193;28;1550;-85
2021/12/03 02:47:38;;;;;;;;;;;;;;;-142.21;100.00;66915.31;4993544;28;1894;-84
2021/12/03 02:50:03;;;;;;;;;;;;;;;-142.21;100.00;66915.31;4993226;28;1472;-84
2021/12/03 02:52:28;;;;;;;;;;;;;;;-142.21;100.00;66915.31;4993466;28;1166;-85
2021/12/03 02:54:54;;;;;;;;;;;;;;;-142.21;100.00;66915.31;4993429;28;703;-84
2021/12/03 02:57:19;;;;;;;;;;;;;;;-142.21;100.00;66915.31;4993559;28;842;-83
2021/12/03 02:59:44;;;;;;;;;;;;;;;-142.21;100.00;66915.31;5008313;28;1298;-83
2021/12/03 03:02:09;;;;;;;;;;;;;;;-142.21;100.00;66915.31;4993304;28;917;-84
2021/12/03 03:04:34;;;;;;;;;;;;;;;-142.21;100.00;66915.31;4994875;28;689;-83
2021/12/03 03:07:00;;;;;;;;;;;;;;;-142.21;100.00;66915.31;4996440;28;1969;-82
2021/12/03 03:09:26;;;;;;;;;;;;;;;-142.21;100.00;66915.31;4990732;28;1476;-86
2021/12/03 03:11:51;;;;;;;;;;;;;;;-142.21;100.00;66915.31;4993607;28;1281;-84
2021/12/03 03:14:16;;;;;;;;;;;;;;;-142.21;100.00;66915.31;4996787;28;1349;-84
2021/12/03 03:16:42;;;;;;;;;;;;;;;-142.21;100.00;66915.31;5011973;28;1322;-84
2021/12/03 03:19:11;;;;;;;;;;;;;;;-142.21;100.00;66915.31;4996670;28;1318;-84
2021/12/03 03:21:37;;;;;;;;;;;;;;;-142.21;100.00;66915.31;4981981;28;1404;-85
2021/12/03 03:24:03;;;;;;;;;;;;;;;-142.21;100.00;66915.31;5011865;28;1287;-84
2021/12/03 03:26:28;;;;;;;;;;;;;;;-142.21;100.00;66915.31;4996562;28;1173;-84
2021/12/03 03:28:57;;;;;;;;;;;;;;;-142.21;100.00;66915.31;4996430;28;1957;-84
2021/12/03 03:31:22;;;;;;;;;;;;;;;-142.21;100.00;66915.31;4996679;28;861;-84
2021/12/03 03:33:47;;;;;;;;;;;;;;;-142.21;100.00;66915.31;4996533;28;1397;-84
2021/12/03 03:36:12;;;;;;;;;;;;;;;-142.21;100.00;66915.31;4996394;28;1428;-85
2021/12/03 03:38:37;;;;;;;;;;;;;;;-142.21;100.00;66915.31;4995145;28;1273;-84
2021/12/03 03:41:03;;;;;;;;;;;;;;;-142.21;100.00;66915.31;4996294;28;805;-83
2021/12/03 03:43:28;;;;;;;;;;;;;;;-142.21;100.00;66915.31;4996439;28;794;-84
2021/12/03 03:45:53;;;;;;;;;;;;;;;-142.21;100.00;66915.31;4996308;28;1023;-84
2021/12/03 03:48:18;;;;;;;;;;;;;;;-142.21;100.00;66915.31;4996171;28;1939;-84
2021/12/03 03:50:44;;;;;;;;;;;;;;;-142.21;100.00;66915.31;4996301;28;992;-84
2021/12/03 03:53:09;;;;;;;;;;;;;;;-142.21;100.00;66915.31;4996216;28;829;-83
2021/12/03 03:55:34;;;;;;;;;;;;;;;-142.21;100.00;66915.31;4996111;28;965;-84
2021/12/03 03:58:02;;;;;;;;;;;;;;;-142.21;100.00;66915.31;4995967;28;1222;-84
2021/12/03 04:00:29;;;;;;;;;;;;;;;-142.21;100.00;66915.31;4996354;28;874;-84
2021/12/03 04:02:55;;;;;;;;;;;;;;;-142.21;100.00;66915.31;4995967;28;1000;-84
2021/12/03 04:05:20;;;;;;;;;;;;;;;-142.21;100.00;66915.31;4996007;28;988;-84
2021/12/03 04:07:45;;;;;;;;;;;;;;;-142.21;100.00;66915.31;4995807;28;1955;-83
2021/12/03 04:10:10;;;;;;;;;;;;;;;-142.21;100.00;66915.31;4995784;28;1221;-85
2021/12/03 04:12:36;;;;;;;;;;;;;;;-142.21;100.00;66915.31;4995796;28;893;-84
2021/12/03 04:15:02;;;;;;;;;;;;;;;-142.21;100.00;66915.31;4995742;28;1452;-85
2021/12/03 04:17:27;;;;;;;;;;;;;;;-142.21;100.00;66915.31;4995271;28;1024;-84
2021/12/03 04:19:53;;;;;;;;;;;;;;;-142.21;100.00;66915.31;4995804;28;1203;-85
2021/12/03 04:22:23;;;;;;;;;;;;;;;-142.21;100.00;66915.31;4994654;28;1528;-84
2021/12/03 04:24:48;;;;;;;;;;;;;;;-142.21;100.00;66915.31;4995653;28;809;-84
2021/12/03 04:27:13;;;;;;;;;;;;;;;-142.21;100.00;66915.31;4995308;28;1890;-85
2021/12/03 04:29:38;;;;;;;;;;;;;;;-142.21;100.00;66915.31;4995347;28;1440;-84
2021/12/03 04:32:04;;;;;;;;;;;;;;;-142.21;100.00;66915.31;4995411;28;976;-85
2021/12/03 04:34:29;;;;;;;;;;;;;;;-142.21;100.00;66915.31;4995402;28;1071;-84
2021/12/03 04:36:54;;;;;;;;;;;;;;;-142.21;100.00;66915.31;4995352;28;1015;-84
2021/12/03 04:39:19;;;;;;;;;;;;;;;-142.21;100.00;66915.31;5010097;28;1212;-84
2021/12/03 04:41:44;;;;;;;;;;;;;;;-142.21;100.00;66915.31;4995299;28;1362;-85
2021/12/03 04:44:10;;;;;;;;;;;;;;;-142.21;100.00;66915.31;4994020;28;1047;-85
2021/12/03 04:46:35;;;;;;;;;;;;;;;-142.21;100.00;66915.31;4995135;28;976;-86
2021/12/03 04:49:00;;;;;;;;;;;;;;;-142.21;100.00;66915.31;4994917;28;1902;-86
2021/12/03 04:51:25;;;;;;;;;;;;;;;-142.21;100.00;66915.31;4995249;28;759;-85
2021/12/03 04:53:51;;;;;;;;;;;;;;;-142.21;100.00;66915.31;4994986;28;1055;-85
2021/12/03 04:56:16;;;;;;;;;;;;;;;-142.21;100.00;66915.31;5010005;28;1491;-85
2021/12/03 04:58:41;;;;;;;;;;;;;;;-142.21;100.00;66915.31;4994790;28;1217;-85
2021/12/03 05:01:06;;;;;;;;;;;;;;;-142.21;100.00;66915.31;5009931;28;981;-85
2021/12/03 05:03:31;;;;;;;;;;;;;;;-142.21;100.00;66915.31;4994852;28;893;-85
2021/12/03 05:06:00;;;;;;;;;;;;;;;-142.21;100.00;66915.31;4994760;28;1504;-84
2021/12/03 05:08:26;;;;;;;;;;;;;;;-142.21;100.00;66915.31;4994577;28;1961;-85
2021/12/03 05:10:53;;;;;;;;;;;;;;;-142.21;100.00;66915.31;4993615;28;1281;-85
2021/12/03 05:13:20;;;;;;;;;;;;;;;-142.21;100.00;66915.31;4994779;28;813;-85
2021/12/03 05:15:46;;;;;;;;;;;;;;;-142.21;100.00;66915.31;4993363;28;1198;-85
2021/12/03 05:18:12;;;;;;;;;;;;;;;-142.21;100.00;66915.31;4993200;28;1291;-84
2021/12/03 05:20:38;;;;;;;;;;;;;;;-142.21;100.00;66915.31;4994629;28;849;-85
2021/12/03 05:23:03;;;;;;;;;;;;;;;-142.21;100.00;66915.31;4993000;28;1500;-85
2021/12/03 05:25:29;;;;;;;;;;;;;;;-142.21;100.00;66915.31;4994429;28;782;-85
2021/12/03 05:27:54;;;;;;;;;;;;;;;-142.21;100.00;66915.31;4993525;28;1952;-85
2021/12/03 05:30:20;;;;;;;;;;;;;;;-142.21;100.00;66915.31;4994260;28;1167;-84
2021/12/03 05:32:45;;;;;;;;;;;;;;;-142.21;100.00;66915.31;4994351;28;1015;-85
2021/12/03 05:35:10;;;;;;;;;;;;;;;-142.21;100.00;66915.31;4994468;28;844;-85
2021/12/03 05:37:36;;;;;;;;;;;;;;;-142.21;100.00;66915.31;4994334;28;991;-85
2021/12/03 05:40:02;;;;;;;;;;;;;;;-142.21;100.00;66915.31;4994108;28;1306;-85
2021/12/03 05:42:27;;;;;;;;;;;;;;;-142.21;100.00;66915.31;4992855;28;1533;-84
2021/12/03 05:44:54;;;;;;;;;;;;;;;-142.21;100.00;66915.31;4994082;28;984;-85
2021/12/03 05:47:19;;;;;;;;;;;;;;;-142.21;100.00;66915.31;4994095;28;1951;-85
2021/12/03 05:49:44;;;;;;;;;;;;;;;-142.21;100.00;66915.31;4994079;28;1299;-85
2021/12/03 05:52:09;;;;;;;;;;;;;;;-142.21;100.00;66915.31;4992789;28;985;-85
2021/12/03 05:54:34;;;;;;;;;;;;;;;-142.21;100.00;66915.31;4994110;28;968;-85
2021/12/03 05:57:00;;;;;;;;;;;;;;;-142.21;100.00;66915.31;4993986;28;850;-85
2021/12/03 05:59:25;;;;;;;;;;;;;;;-142.21;100.00;66915.31;4992432;28;1293;-84
2021/12/03 06:01:50;;;;;;;;;;;;;;;-142.21;100.00;66915.31;4994070;28;719;-84
2021/12/03 06:04:15;;;;;;;;;;;;;;;-142.21;100.00;66915.31;4993934;28;1058;-84
2021/12/03 06:06:40;;;;;;;;;;;;;;;-142.21;100.00;66915.31;4993793;28;1389;-84
2021/12/03 06:09:06;;;;;;;;;;;;;;;-142.21;100.00;66915.31;4993468;28;1898;-85
2021/12/03 06:11:31;;;;;;;;;;;;;;;-142.21;100.00;66915.31;4993923;28;1047;-84
2021/12/03 06:13:56;;;;;;;;;;;;;;;-142.21;100.00;66915.31;4993945;28;790;-85
2021/12/03 06:16:21;;;;;;;;;;;;;;;-142.21;100.00;66915.31;4993808;28;976;-86
2021/12/03 06:18:46;;;;;;;;;;;;;;;-142.21;100.00;66915.31;4993582;28;1172;-84
2021/12/03 06:21:14;;;;;;;;;;;;;;;-142.21;100.00;66915.31;4993669;28;1593;-85
2021/12/03 06:23:39;;;;;;;;;;;;;;;-142.21;100.00;66915.31;4993860;28;1538;-86
2021/12/03 06:26:06;;;;;;;;;;;;;;;-142.21;100.00;66915.31;4992608;28;1205;-85
2021/12/03 06:28:32;;;;;;;;;;;;;;;-142.21;100.00;66915.31;4993466;28;1961;-86
2021/12/03 06:30:57;;;;;;;;;;;;;;;-142.21;100.00;66915.31;4993701;28;1496;-85
2021/12/03 06:33:22;;;;;;;;;;;;;;;-142.21;100.00;66915.31;5008867;28;1160;-86
2021/12/03 06:35:47;;;;;;;;;;;;;;;-142.21;100.00;66915.31;4993680;28;960;-85
2021/12/03 06:38:13;;;;;;;;;;;;;;;-142.21;100.00;66915.31;5008596;28;1268;-85
2021/12/03 06:40:38;;;;;;;;;;;;;;;-142.21;100.00;66915.31;4997011;28;830;-85
2021/12/03 06:43:03;;;;;;;;;;;;;;;-142.21;100.00;66915.31;4996284;28;1067;-85
2021/12/03 06:45:29;;;;;;;;;;;;;;;-142.21;100.00;66915.31;4997538;28;984;-86
2021/12/03 06:47:54;;;;;;;;;;;;;;;-142.21;100.00;66915.31;4997388;28;1952;-84
2021/12/03 06:50:19;;;;;;;;;;;;;;;-142.21;100.00;66915.31;4997293;28;1254;-85
2021/12/03 06:52:49;;;;;;;;;;;;;;;-142.21;100.00;66915.31;4996219;28;1379;-85
2021/12/03 06:55:15;;;;;;;;;;;;;;;-142.21;100.00;66915.31;4998585;28;853;-86
2021/12/03 06:57:42;;;;;;;;;;;;;;;-142.21;100.00;66915.31;4997284;28;858;-86
2021/12/03 07:00:08;;;;;;;;;;;;;;;-142.21;100.00;66915.31;4997993;28;1280;-84
2021/12/03 07:02:33;;;;;;;;;;;;;;;-142.21;100.00;66915.31;4996778;28;1156;-86
2021/12/03 07:04:58;;;;;;;;;;;;;;;-142.21;100.00;66915.31;4996966;28;972;-87
2021/12/03 07:07:24;;;;;;;;;;;;;;;-142.21;100.00;66915.31;4997191;28;1961;-85
2021/12/03 07:09:49;;;;;;;;;;;;;;;-142.21;100.00;66915.31;4997225;28;1171;-86
2021/12/03 07:12:15;;;;;;;;;;;;;;;-142.21;100.00;66915.31;4997434;28;1036;-85
2021/12/03 07:14:40;;;;;;;;;;;;;;;-142.21;100.00;66915.31;4997621;28;909;-86
2021/12/03 07:17:06;;;;;;;;;;;;;;;-142.21;100.00;66915.31;4997207;28;866;-86
2021/12/03 07:19:32;;;;;;;;;;;;;;;-142.21;100.00;66915.31;4997082;28;1226;-86
2021/12/03 07:21:57;;;;;;;;;;;;;;;-142.21;100.00;66915.31;4997240;28;1440;-86
2021/12/03 07:24:22;;;;;;;;;;;;;;;-142.21;100.00;66915.31;4998117;28;991;-85
2021/12/03 07:26:47;;;;;;;;;;;;;;;-142.21;100.00;66915.31;4995941;28;1460;-86
2021/12/03 07:29:12;;;;;;;;;;;;;;;-142.21;100.00;66915.31;4996218;28;1906;-85
2021/12/03 07:31:38;;;;;;;;;;;;;;;-142.21;100.00;66915.31;4997291;28;1539;-86
2021/12/03 07:34:03;;;;;;;;;;;;;;;-142.21;100.00;66915.31;4997517;28;794;-88
2021/12/03 07:36:28;;;;;;;;;;;;;;;-142.21;100.00;66915.31;4997686;28;988;-85
2021/12/03 07:38:53;;;;;;;;;;;;;;;-142.21;100.00;66915.31;4997829;28;1169;-86
2021/12/03 07:41:19;;;;;;;;;;;;;;;-142.21;100.00;66915.31;4997030;28;1384;-85
2021/12/03 07:43:44;;;;;;;;;;;;;;;-142.21;100.00;66915.31;4995933;28;1319;-86
2021/12/03 07:46:09;;;;;;;;;;;;;;;-142.21;100.00;66915.31;4997212;28;936;-86
2021/12/03 07:48:35;;;;;;;;;;;;;;;-142.21;100.00;66915.31;4995954;28;1906;-85
2021/12/03 07:51:00;;;;;;;;;;;;;;;-142.21;100.00;66915.31;4994769;28;1473;-87
2021/12/03 07:53:26;;;;;;;;;;;;;;;-142.21;100.00;66915.31;4996871;28;866;-85
2021/12/03 07:55:52;;;;;;;;;;;;;;;-142.21;100.00;66915.31;4995806;28;1292;-86
2021/12/03 07:58:18;;;;;;;;;;;;;;;-142.21;100.00;66915.31;4996470;28;1443;-85
2021/12/03 08:00:44;;;;;;;;;;;;;;;-142.21;100.00;66915.31;4997607;28;1731;-86
2021/12/03 08:03:09;;;;;;;;;;;;;;;-142.21;100.00;66915.31;4998117;28;1766;-86
2021/12/03 08:05:35;;;;;;;;;;;;;;;-142.21;100.00;66915.31;4998302;28;897;-89
2021/12/03 08:08:03;;;;;;;;;;;;;;;-142.21;100.00;66915.31;4999705;28;1902;-88
2021/12/03 08:10:28;;;;;;;;;;;;;;;-142.21;100.00;66915.31;4999951;28;1238;-88
2021/12/03 08:12:54;;;;;;;;;;;;;;;-142.21;100.00;66915.31;5000703;28;1398;-88
2021/12/03 08:15:19;;;;;;;;;;;;;;;-142.21;100.00;66915.31;4999917;28;1221;-89
2021/12/03 08:17:48;;;;;;;;;;;;;;;-142.21;100.00;66915.31;4999741;28;1902;-87
2021/12/03 08:20:14;;;;;;;;;;;;;;;-142.21;100.00;66915.31;5000767;28;1183;-86
2021/12/03 08:22:39;;;;;;;;;;;;;;;-142.21;100.00;66915.31;4998990;28;1241;-88
2021/12/03 08:25:04;;;;;;;;;;;;;;;-142.21;100.00;66915.31;5000911;28;1480;-88
2021/12/03 08:27:30;;;;;;;;;;;;;;;-142.21;100.00;66915.31;4999564;28;1894;-88
2021/12/03 08:29:55;;;;;;;;;;;;;;;-142.21;100.00;66915.31;5000345;28;1544;-88
2021/12/03 08:32:20;;;;;;;;;;;;;;;-142.21;100.00;66915.31;4999014;28;1102;-88
2021/12/03 08:34:46;;;;;;;;;;;;;;;-142.21;100.00;66915.31;4997749;28;1889;-87
2021/12/03 08:37:11;;;;;;;;;;;;;;;-142.21;100.00;66915.31;4999318;28;790;-87
2021/12/03 08:39:37;;;;;;;;;;;;;;;-142.21;100.00;66915.31;5001069;28;1844;-87
2021/12/03 08:42:03;;;;;;;;;;;;;;;-142.21;100.00;66915.31;4999449;28;1217;-86
2021/12/03 08:44:29;;;;;;;;;;;;;;;-142.21;100.00;66915.31;5002566;28;1715;-89
2021/12/03 08:46:59;;;;;;;;;;;;;;;-142.21;100.00;66915.31;5036183;28;1894;-87
2021/12/03 08:49:33;;;;;;;;;;;;;;;-142.21;100.00;66915.31;5035386;28;1379;-89
2021/12/03 08:52:23;;;;;;;;;;;;;;;-142.21;100.00;66915.31;5028131;28;1627;-88
2021/12/03 08:54:53;;;;;;;;;;;;;;;-142.21;100.00;66915.31;4998836;28;1308;-88
2021/12/03 08:57:38;;;;;;;;;;;;;;;-142.21;100.00;66915.31;5000177;28;1208;-89
2021/12/03 09:00:03;;;;;;;;;;;;;;;-142.21;100.00;66915.31;5000139;28;1452;-86
2021/12/03 09:02:28;;;;;;;;;;;;;;;-142.21;100.00;66915.31;4999393;28;1102;-87
2021/12/03 09:04:54;;;;;;;;;;;;;;;-142.21;100.00;66915.31;4995918;28;1311;-88
2021/12/03 09:07:20;;;;;;;;;;;;;;;-142.21;100.00;66915.31;5012650;28;1902;-88
2021/12/03 09:09:48;;;;;;;;;;;;;;;-142.21;100.00;66915.31;4995784;28;1288;-88
2021/12/03 09:12:13;;;;;;;;;;;;;;;-142.21;100.00;66915.31;4998109;28;833;-87
2021/12/03 09:14:45;;;;;;;;;;;;;;;-142.21;100.00;66915.31;4997057;28;1207;-87
2021/12/03 09:22:49;;;;;;;;;;;;;;;-142.21;100.00;66915.31;4941881;28;2021;-88
2021/12/03 09:25:18;;;;;;;;;;;;;;;-142.21;100.00;66915.31;4974339;28;1324;-89
2021/12/03 09:27:43;;;;;;;;;;;;;;;-142.21;100.00;66915.31;4976509;28;1968;-85
2021/12/03 09:30:10;;;;;;;;;;;;;;;-142.21;100.00;66915.31;4978178;28;1308;-86
2021/12/03 09:32:35;;;;;;;;;;;;;;;-142.21;100.00;66915.31;4977418;28;881;-85
2021/12/03 09:35:02;;;;;;;;;;;;;;;-142.21;100.00;66915.31;4993476;28;1575;-87
2021/12/03 09:37:27;;;;;;;;;;;;;;;-142.21;100.00;66915.31;4996380;28;1578;-86
2021/12/03 09:39:52;;;;;;;;;;;;;;;-142.21;100.00;66915.31;4994119;28;1226;-87
2021/12/03 09:42:21;;;;;;;;;;;;;;;-142.21;100.00;66915.31;4994625;28;1665;-85
2021/12/03 09:44:49;;;;;;;;;;;;;;;-142.21;100.00;66915.31;5009488;28;1456;-85
2021/12/03 09:47:14;;;;;;;;;;;;;;;-142.21;100.00;66915.31;4993908;28;1977;-84
2021/12/03 09:49:41;;;;;;;;;;;;;;;-142.21;100.00;66915.31;4993954;28;1209;-86
2021/12/03 09:52:15;;;;;;;;;;;;;;;-142.21;100.00;66915.31;4994224;28;833;-87
2021/12/03 09:54:43;;;;;;;;;;;;;;;-142.21;100.00;66915.31;4994108;28;842;-85
2021/12/03 09:57:12;;;;;;;;;;;;;;;-142.21;100.00;66915.31;4993749;28;806;-85
2021/12/03 10:13:37;;;;;;;;;;;;;;;-142.21;100.00;66915.31;4978324;28;1273;-83
2021/12/03 10:16:11;;;;;;;;;;;;;;;-142.21;100.00;66915.31;4979020;28;782;-82
2021/12/03 10:18:43;;;;;;;;;;;;;;;-142.21;100.00;66915.31;4977817;28;1201;-84
2021/12/03 10:21:24;;;;;;;;;;;;;;;-142.21;100.00;66915.31;4979277;28;904;-83
2021/12/03 10:26:40;;;;;;;;;;;;;;;-142.21;100.00;66915.31;4978554;28;848;-84
2021/12/03 10:29:13;;;;;;;;;;;;;;;-142.21;100.00;66915.31;4977194;28;1894;-84
2021/12/03 10:32:18;;;;;;;;;;;;;;;-142.21;100.00;66915.31;4979690;28;1441;-83
2021/12/03 10:35:01;;;;;;;;;;;;;;;-142.21;100.00;66915.31;4980564;28;1217;-83
2021/12/03 10:40:35;;;;;;;;;;;;;;;-142.21;100.00;66915.31;4978206;28;616;-84
2021/12/03 10:46:45;;;;;;;;;;;;;;;-142.21;100.00;66915.31;4982188;28;1736;-83
2021/12/03 10:49:16;;;;;;;;;;;;;;;-142.21;100.00;66915.31;4988675;28;1902;-84
2021/12/03 10:57:21;;;;;;;;;;;;;;;-142.21;100.00;66915.31;4997886;28;1095;-84
2021/12/03 11:03:12;;;;;;;;;;;;;;;-142.21;100.00;66915.31;4998229;28;1201;-84
2021/12/03 11:08:08;;;;;;;;;;;;;;;-142.21;100.00;66915.31;4999099;28;1895;-83
2021/12/03 11:25:31;;;;;;;;;;;;;;;-142.21;100.00;66915.31;4973406;28;1025;-83
2021/12/03 11:28:17;;;;;;;;;;;;;;;-142.21;100.00;66915.31;4998168;28;1898;-81
2021/12/03 11:30:52;;;;;;;;;;;;;;;-142.21;100.00;66915.31;4998030;28;972;-83
2021/12/03 11:38:54;;;;;;;;;;;;;;;-142.21;100.00;66915.31;4998924;28;924;-84
2021/12/03 11:42:03;;;;;;;;;;;;;;;-142.21;100.00;66915.31;4998765;28;1025;-84
2021/12/03 12:09:36;;;;;;;;;;;;;;;-142.21;100.00;66915.31;4997770;28;1958;-85
2021/12/03 12:21:12;;;;;;;;;;;;;;;-142.21;100.00;66915.31;4984370;28;1532;-83
2021/12/03 12:23:58;;;;;;;;;;;;;;;-142.21;100.00;66915.31;4999177;28;1453;-83
2021/12/03 12:26:49;;;;;;;;;;;;;;;-142.21;100.00;66915.31;4999605;28;1166;-84
2021/12/03 12:39:08;;;;;;;;;;;;;;;-142.21;100.00;66915.31;4969607;28;1095;-84
2021/12/03 12:47:28;;;;;;;;;;;;;;;-142.21;100.00;66915.31;4981454;28;806;-85
2021/12/03 12:56:38;;;;;;;;;;;;;;;-142.21;100.00;66915.31;4990725;28;1350;-83
2021/12/03 13:04:38;;;;;;;;;;;;;;;-142.21;100.00;66915.31;4977273;28;1253;-83
2021/12/03 13:07:17;;;;;;;;;;;;;;;-142.21;100.00;66915.31;4975318;28;1054;-83
2021/12/03 13:10:39;;;;;;;;;;;;;;;-142.21;100.00;66915.31;4976655;28;2062;-84
2021/12/03 13:12:33;;;;;;;;;;;;;;;-142.21;100.00;66915.31;4991185;28;1194;-83
2021/12/03 13:20:33;;;;;;;;;;;;;;;-142.21;100.00;66915.31;4996212;28;857;-84
2021/12/03 13:26:26;;;;;;;;;;;;;;;-142.21;100.00;66915.31;4994754;28;1412;-84
2021/12/03 13:29:16;;;;;;;;;;;;;;;-142.21;100.00;66915.31;4977201;28;1891;-83
2021/12/03 13:32:10;;;;;;;;;;;;;;;-142.21;100.00;66915.31;4996907;28;1053;-84
2021/12/03 13:38:02;;;;;;;;;;;;;;;-142.21;100.00;66915.31;4996167;28;980;-84
2021/12/03 13:40:45;;;;;;;;;;;;;;;-142.21;100.00;66915.31;4995886;28;1147;-84
2021/12/03 13:46:43;;;;;;;;;;;;;;;-142.21;100.00;66915.31;4996412;28;948;-84
2021/12/03 13:56:57;;;;;;;;;;;;;;;-142.21;100.00;66915.31;4996846;28;1646;-84
2021/12/03 13:59:39;;;;;;;;;;;;;;;-142.21;100.00;66915.31;4996434;28;1033;-84
2021/12/03 14:02:22;;;;;;;;;;;;;;;-142.21;100.00;66915.31;4976652;28;1142;-83
2021/12/03 14:07:41;;;;;;;;;;;;;;;-142.21;100.00;66915.31;4983585;28;1940;-84
2021/12/03 14:42:53;;;;;;;;;;;;;;;-142.21;100.00;66915.31;4982920;28;1388;-84
2021/12/03 14:45:28;;;;;;;;;;;;;;;-142.21;100.00;66915.31;4999990;28;1430;-83
2021/12/03 14:48:46;;;;;;;;;;;;;;;-142.21;100.00;66915.31;4981936;28;1898;-84
2021/12/03 14:51:06;;;;;;;;;;;;;;;-142.21;100.00;66915.31;4989034;28;1250;-83
2021/12/03 14:53:53;;;;;;;;;;;;;;;-142.21;100.00;66915.31;4998357;28;1456;-82
2021/12/03 14:56:23;;;;;;;;;;;;;;;-142.21;100.00;66915.31;4998963;28;1202;-84
2021/12/03 14:59:11;;;;;;;;;;;;;;;-142.21;100.00;66915.31;4999093;28;1283;-84
2021/12/03 15:04:26;;;;;;;;;;;;;;;-142.21;100.00;66915.31;5003099;28;1509;-83
2021/12/03 15:07:34;;;;;;;;;;;;;;;-142.21;100.00;66915.31;5004116;28;889;-83
2021/12/03 15:09:52;;;;;;;;;;;;;;;-142.21;100.00;66915.31;5000746;28;1023;-84
2021/12/03 15:25:28;;;;;;;;;;;;;;;-142.21;100.00;66915.31;5003332;28;813;-84
2021/12/03 15:33:27;;;;;;;;;;;;;;;-142.21;100.00;66915.31;4998815;28;1468;-84
2021/12/03 15:36:06;;;;;;;;;;;;;;;-142.21;100.00;66915.31;4980761;28;1216;-82
2021/12/03 15:38:41;;;;;;;;;;;;;;;-142.21;100.00;66915.31;4987744;28;1149;-83
2021/12/03 15:41:26;;;;;;;;;;;;;;;-142.21;100.00;66915.31;4993233;28;1231;-82
2021/12/03 15:52:25;;;;;;;;;;;;;;;-142.21;100.00;66915.31;5001126;28;608;-85
2021/12/03 15:55:15;;;;;;;;;;;;;;;-142.21;100.00;66915.31;4999689;28;1524;-84
2021/12/03 15:57:57;;;;;;;;;;;;;;;-142.21;100.00;66915.31;5001190;28;1011;-85
2021/12/03 16:03:32;;;;;;;;;;;;;;;-142.21;100.00;66915.31;5001023;28;1150;-84
2021/12/03 16:03:37;;;;;;;;;;;;;;;-142.21;100.00;66915.31;5016488;23;3626;-87
2021/12/03 16:06:18;;;;;;;;;;;;;;;-142.21;100.00;66915.31;4998068;28;2353;-86
2021/12/03 16:08:55;;;;;;;;;;;;;;;-142.21;100.00;66915.31;4994423;28;1969;-86